• Join FlightAware (Why Join?)
  • Login
  • US Flag 
09:34AM EDT


 

Airport Tracker/Info


-or-


 

Live Flight TrackerFlight Track Log ✈ UAL139 ✈ 22-Aug-2013 ✈ KDEN - RJAA / NRT

Flight Track Log - Related Links

Times and Time Zones

All times are in EDT time to prevent confusion due to time zone crossing. See the UAL139 flight status page for this flight to view local times or setup timezone preferences in your user account.

Time Position Orientation Groundspeed Altitude Reporting Facility
EDT Latitude Longitude Course Direction KTS MPH feet Rate Location/Type
03:12PM 39.8640 -104.6960 360° North 134 154 5,000  Level FlightAware
03:12PM 39.8805 -104.6960 360° North 191 220 5,000 480 Level FlightAware ADS-B
03:13PM 39.8953 -104.6960 360° North 218 251 5,300 1,680 Climbing FlightAware ADS-B
03:13PM 39.9076 -104.6960 360° North 218 251 5,800 2,400 Climbing FlightAware ADS-B
03:13PM 39.9147 -104.6960 360° North 219 252 6,100 2,160 Climbing FlightAware ADS-B
03:13PM 39.9190 -104.6960 360° North 221 254 6,200 1,680 Climbing FlightAware ADS-B
03:13PM 39.9221 -104.6970 346° North 223 257 6,300 1,500 Climbing FlightAware ADS-B
03:13PM 39.9272 -104.6980 351° North 229 264 6,400 780 Climbing FlightAware ADS-B
03:13PM 39.9377 -104.7010 348° North 241 277 6,500 720 Climbing FlightAware ADS-B
03:14PM 39.9550 -104.7060 348° North 260 299 6,700 1,380 Climbing FlightAware ADS-B
03:14PM 39.9732 -104.7120 346° North 271 312 7,200 1,800 Climbing FlightAware ADS-B
03:14PM 39.9921 -104.7180 346° North 284 327 7,600 1,440 Climbing FlightAware ADS-B
03:14PM 40.0106 -104.7230 348° North 297 342 7,900 1,860 Climbing FlightAware ADS-B
03:15PM 40.0313 -104.7290 347° North 302 348 8,500 2,760 Climbing FlightAware ADS-B
03:15PM 40.0490 -104.7330 350° North 297 342 9,200 3,180 Climbing FlightAware ADS-B
03:15PM 40.0710 -104.7420 343° North 293 337 10,100 1,860 Climbing FlightAware ADS-B
03:16PM 40.1110 -104.7610 340° North 321 369 10,700 1,080 Climbing FlightAware ADS-B
03:16PM 40.1553 -104.7820 340° North 352 405 11,200 1,560 Climbing FlightAware ADS-B
03:17PM 40.2030 -104.8050 340° North 362 417 12,300 2,100 Climbing FlightAware ADS-B
03:17PM 40.2522 -104.8280 340° North 367 422 13,400 2,220 Climbing FlightAware ADS-B
03:18PM 40.3027 -104.8510 341° North 371 427 14,600 2,100 Climbing FlightAware ADS-B
03:18PM 40.3534 -104.8750 340° North 383 441 15,600 1,440 Climbing FlightAware ADS-B
03:19PM 40.4052 -104.8990 341° North 407 468 16,100 960 Climbing FlightAware ADS-B
03:19PM 40.4603 -104.9250 340° North 427 491 16,600 1,260 Climbing FlightAware ADS-B
03:20PM 40.5168 -104.9510 341° North 436 502 17,400 1,740 Climbing FlightAware ADS-B
03:20PM 40.5773 -104.9800 340° North 443 510 18,400 1,740 Climbing FlightAware ADS-B
03:21PM 40.6360 -105.0070 341° North 449 517 19,200 1,560 Climbing FlightAware ADS-B
03:21PM 40.7250 -105.0490 340° North 459 528 20,400 1,680 Climbing FlightAware ADS-B
03:22PM 40.7595 -105.0710 334° Northwest 458 527 21,000 1,680 Climbing FlightAware ADS-B
03:22PM 40.7962 -105.1030 327° Northwest 461 531 21,500 1,500 Climbing FlightAware ADS-B
03:23PM 40.8450 -105.1590 319° Northwest 462 532 22,300 1,440 Climbing FlightAware
03:23PM 40.8680 -105.1840 321° Northwest 461 531 22,600 1,260 Climbing FlightAware ADS-B
03:24PM 40.9386 -105.2640 319° Northwest 461 531 23,500 1,320 Climbing FlightAware ADS-B
03:24PM 41.0180 -105.3540 319° Northwest 478 550 24,600 1,380 Climbing FlightAware
03:25PM 41.0770 -105.4160 322° Northwest 484 557 25,400 1,200 Climbing FlightAware
03:25PM 41.1490 -105.4640 333° Northwest 492 566 26,000 1,020 Climbing FlightAware
03:26PM 41.2190 -105.5040 337° Northwest 499 574 26,600 1,020 Climbing FlightAware
03:27PM 41.2950 -105.5490 336° Northwest 506 582 27,200 960 Climbing FlightAware
03:27PM 41.3750 -105.5970 336° Northwest 510 587 27,800 900 Climbing FlightAware
03:28PM 41.4380 -105.6620 322° Northwest 508 585 28,300 540 Climbing FlightAware
03:29PM 41.4930 -105.7580 307° West 507 583 28,500 1,020 Climbing FlightAware
03:29PM 41.5450 -105.8620 304° West 508 585 29,700 1,800 Climbing FlightAware
03:30PM 41.5920 -105.9540 304° West 503 579 30,700 1,500 Climbing FlightAware
03:30PM 41.6380 -106.0440 304° West 498 573 31,500 1,320 Climbing FlightAware
03:31PM 41.6780 -106.1220 304° West 497 572 32,200 1,320 Climbing FlightAware
03:31PM 41.7290 -106.2220 304° West 493 567 33,100 660 Climbing FlightAware
03:32PM 41.7690 -106.3020 304° West 493 567 33,100  Level FlightAware
03:33PM 41.8080 -106.3790 304° West 493 567 33,100  Level FlightAware
03:33PM 41.8470 -106.4570 304° West 493 567 33,100  Level FlightAware
03:34PM 41.8860 -106.5350 304° West 493 567 33,100  Level FlightAware
03:35PM 41.9260 -106.6150 304° West 493 567 33,100  Level FlightAware
03:35PM 41.9520 -106.6670 304° West 493 567 33,100  Level FlightAware
03:36PM 41.9910 -106.7440 304° West 493 567 33,100  Level FlightAware
03:36PM 42.0300 -106.8220 304° West 493 567 33,100  Level FlightAware
03:37PM 42.0690 -106.9000 304° West 493 567 33,100  Level FlightAware
03:37PM 42.1080 -106.9780 304° West 493 567 33,100  Level FlightAware
03:38PM 42.1470 -107.0560 304° West 493 567 33,100  Level FlightAware
03:39PM 42.1860 -107.1340 304° West 493 567 33,100  Level FlightAware
03:39PM 42.2260 -107.2120 305° West 493 567 33,100  Level FlightAware
03:40PM 42.2650 -107.2910 304° West 493 567 33,100  Level FlightAware
03:40PM 42.3040 -107.3690 304° West 493 567 33,100  Level FlightAware
03:41PM 42.3430 -107.4470 304° West 493 567 33,100 2,220 Level FlightAware
03:42PM 42.4608 -107.6969 304° West 472 543 36,000 2,040 Climbing Denver Center
03:42PM 42.5181 -107.8169 303° West 475 547 36,000  Level Salt Lake Center
03:43PM 42.5867 -107.9575 304° West 471 542 36,000  Level Salt Lake Center
03:44PM 42.6656 -108.1250 303° West 472 543 36,000  Level Salt Lake Center
03:45PM 42.7350 -108.2692 303° West 475 547 36,000  Level Salt Lake Center
03:46PM 42.8147 -108.4400 303° West 478 550 36,000  Level Salt Lake Center
03:47PM 42.8833 -108.5856 303° West 479 551 36,000  Level Salt Lake Center
03:49PM 42.9636 -108.7578 303° West 481 554 36,000  Level Salt Lake Center
03:50PM 43.0353 -108.9125 302° West 479 551 36,000  Level Salt Lake Center
03:51PM 43.1058 -109.0653 302° West 476 548 36,000  Level Salt Lake Center
03:52PM 43.1764 -109.2194 302° West 478 550 36,000  Level Salt Lake Center
03:53PM 43.2475 -109.3736 302° West 479 551 36,000  Level Salt Lake Center
03:55PM 43.3978 -109.7175 301° West 477 549 36,000  Level Salt Lake Center
03:56PM 43.4611 -109.8642 301° West 473 544 36,000  Level Salt Lake Center
03:57PM 43.5314 -110.0378 299° West 480 552 36,100 420 Climbing Salt Lake Center
03:58PM 43.5958 -110.1894 300° West 481 554 36,900 720 Climbing Salt Lake Center
03:59PM 43.6694 -110.3667 300° West 477 549 37,700 480 Climbing Salt Lake Center
04:00PM 43.7308 -110.5175 299° West 473 544 38,000 120 Climbing Salt Lake Center
04:01PM 43.8036 -110.6939 300° West 474 545 38,000  Level Salt Lake Center
04:02PM 43.8647 -110.8469 299° West 473 544 38,000  Level Salt Lake Center
04:03PM 43.9350 -111.0242 299° West 469 540 38,000  Level Salt Lake Center
04:04PM 43.9961 -111.1761 299° West 470 541 38,000  Level Salt Lake Center
04:05PM 44.0569 -111.3278 299° West 469 540 38,000  Level Salt Lake Center
04:06PM 44.1272 -111.5069 299° West 470 541 38,000  Level Salt Lake Center
04:07PM 44.1883 -111.6617 299° West 472 543 38,000  Level Salt Lake Center
04:08PM 44.2589 -111.8431 299° West 474 545 38,000  Level Salt Lake Center
04:09PM 44.3206 -111.9972 299° West 473 544 38,000  Level Salt Lake Center
04:10PM 44.3908 -112.1806 298° West 475 547 38,000  Level Salt Lake Center
04:11PM 44.4514 -112.3375 298° West 476 548 38,000  Level Salt Lake Center
04:12PM 44.5119 -112.4956 298° West 479 551 38,000  Level Salt Lake Center
04:13PM 44.5822 -112.6803 298° West 480 552 38,000  Level Salt Lake Center
04:14PM 44.6422 -112.8375 298° West 478 550 38,000  Level Salt Lake Center
04:15PM 44.7103 -113.0214 298° West 476 548 38,000  Level Salt Lake Center
04:16PM 44.7689 -113.1797 298° West 477 549 38,000  Level Salt Lake Center
04:17PM 44.8394 -113.3661 298° West 481 554 38,000  Level Salt Lake Center
04:18PM 44.8981 -113.5261 297° West 481 554 38,000  Level Salt Lake Center
04:20PM 44.9661 -113.7122 297° West 479 551 38,000  Level Salt Lake Center
04:21PM 45.0244 -113.8703 298° West 476 548 38,000  Level Salt Lake Center
04:22PM 45.0814 -114.0300 297° West 476 548 38,000  Level Salt Lake Center
04:23PM 45.1486 -114.2167 297° West 475 547 38,000  Level Salt Lake Center
04:28PM 45.4800 -115.1630 297° West 476 548 38,000  Level FlightAware
04:29PM 45.5160 -115.2680 296° West 477 549 38,000  Level FlightAware
04:29PM 45.5470 -115.3590 296° West 478 550 38,000  Level FlightAware
04:30PM 45.5820 -115.4600 296° West 477 549 38,000  Level FlightAware
04:31PM 45.6170 -115.5610 296° West 475 547 38,000  Level FlightAware
04:31PM 45.6520 -115.6640 296° West 475 547 38,000  Level FlightAware
04:32PM 45.6820 -115.7540 296° West 475 547 38,000  Level FlightAware
04:32PM 45.7160 -115.8550 296° West 474 545 38,000  Level FlightAware
04:33PM 45.7510 -115.9590 296° West 475 547 38,000  Level FlightAware
04:33PM 45.7820 -116.0530 295° West 478 550 38,000  Level FlightAware
04:34PM 45.8070 -116.1270 296° West 479 551 38,000  Level FlightAware
04:35PM 45.8450 -116.2410 296° West 479 551 38,000  Level FlightAware
04:35PM 45.8750 -116.3320 295° West 479 551 38,000  Level FlightAware
04:36PM 45.9100 -116.4380 295° West 479 551 38,000  Level FlightAware
04:36PM 45.9410 -116.5300 296° West 477 549 38,000  Level FlightAware
04:37PM 45.9750 -116.6370 295° West 478 550 38,000  Level FlightAware
04:37PM 46.0090 -116.7410 295° West 480 552 38,000  Level FlightAware
04:38PM 46.0390 -116.8330 295° West 480 552 38,000  Level FlightAware
04:39PM 46.0720 -116.9360 295° West 479 551 38,000  Level FlightAware
04:39PM 46.1070 -117.0420 295° West 479 551 38,000  Level FlightAware
04:40PM 46.1380 -117.1410 294° West 479 551 38,000  Level FlightAware
04:41PM 46.1800 -117.2720 295° West 480 552 38,000  Level FlightAware
04:41PM 46.2170 -117.3770 297° West 480 552 38,000  Level FlightAware
04:42PM 46.2540 -117.4910 295° West 479 551 38,000  Level FlightAware
04:42PM 46.2870 -117.5900 296° West 480 552 38,000  Level FlightAware
04:43PM 46.3220 -117.6950 296° West 480 552 38,000  Level FlightAware
04:43PM 46.3510 -117.7870 295° West 480 552 38,000  Level FlightAware
04:44PM 46.3870 -117.8970 295° West 481 554 38,000  Level FlightAware
04:45PM 46.4180 -117.9910 296° West 482 555 38,000  Level FlightAware
04:45PM 46.4520 -118.0970 295° West 483 556 38,000  Level FlightAware
04:46PM 46.4860 -118.2020 295° West 485 558 38,000  Level FlightAware
04:46PM 46.5160 -118.2970 295° West 486 559 38,000  Level FlightAware
04:47PM 46.5500 -118.4040 295° West 486 559 38,000  Level FlightAware
04:48PM 46.5840 -118.5090 295° West 487 560 38,000  Level FlightAware
04:48PM 46.6180 -118.6180 294° West 487 560 38,000  Level FlightAware
04:49PM 46.6480 -118.7140 295° West 488 562 38,000  Level FlightAware
04:49PM 46.6840 -118.8270 295° West 489 563 38,000  Level FlightAware
04:50PM 46.6972 -118.8700 294° West 489 563 38,000  Level FlightAware ADS-B
04:50PM 46.7260 -118.9620 295° West 490 564 38,000  Level FlightAware ADS-B
04:51PM 46.7539 -119.0520 294° West 491 565 38,000  Level FlightAware ADS-B
04:51PM 46.7884 -119.1630 294° West 491 565 38,000  Level FlightAware ADS-B
04:52PM 46.8187 -119.2610 294° West 491 565 38,000  Level FlightAware ADS-B
04:52PM 46.8472 -119.3540 294° West 491 565 38,000  Level FlightAware ADS-B
04:53PM 46.8753 -119.4460 294° West 492 566 38,000  Level FlightAware ADS-B
04:53PM 46.9030 -119.5370 294° West 492 566 38,000  Level FlightAware ADS-B
04:54PM 46.9310 -119.6290 294° West 492 566 38,000  Level FlightAware ADS-B
04:54PM 46.9585 -119.7190 294° West 492 566 38,000  Level FlightAware ADS-B
04:55PM 46.9866 -119.8130 294° West 492 566 38,000  Level FlightAware ADS-B
04:55PM 47.0152 -119.9080 294° West 490 564 38,000  Level FlightAware ADS-B
04:56PM 47.0427 -120.0000 294° West 490 564 38,000  Level FlightAware ADS-B
04:56PM 47.0700 -120.0910 294° West 491 565 38,000  Level FlightAware ADS-B
04:57PM 47.0977 -120.1850 293° West 491 565 38,000  Level FlightAware ADS-B
04:57PM 47.1251 -120.2770 294° West 490 564 38,000  Level FlightAware ADS-B
04:58PM 47.1523 -120.3690 294° West 489 563 38,000  Level FlightAware ADS-B
04:58PM 47.1791 -120.4600 293° West 488 562 38,000  Level FlightAware ADS-B
04:59PM 47.2061 -120.5530 293° West 490 564 38,000  Level FlightAware ADS-B
04:59PM 47.2330 -120.6450 293° West 489 563 38,000  Level FlightAware ADS-B
05:00PM 47.2599 -120.7380 293° West 489 563 38,000  Level FlightAware ADS-B
05:00PM 47.2868 -120.8300 293° West 487 560 38,000  Level FlightAware ADS-B
05:01PM 47.3134 -120.9230 293° West 487 560 38,000  Level FlightAware ADS-B
05:01PM 47.3400 -121.0150 293° West 488 562 38,000  Level FlightAware ADS-B
05:02PM 47.3664 -121.1080 293° West 488 562 38,000  Level FlightAware ADS-B
05:02PM 47.3931 -121.2010 293° West 487 560 38,000  Level FlightAware ADS-B
05:03PM 47.4193 -121.2940 293° West 488 562 38,000  Level FlightAware ADS-B
05:03PM 47.4459 -121.3880 293° West 489 563 38,000  Level FlightAware ADS-B
05:04PM 47.4722 -121.4810 293° West 488 562 38,000  Level FlightAware ADS-B
05:04PM 47.4981 -121.5730 293° West 488 562 38,000  Level FlightAware ADS-B
05:05PM 47.5242 -121.6670 292° West 487 560 38,000  Level FlightAware ADS-B
05:05PM 47.5510 -121.7630 293° West 485 558 38,000  Level FlightAware ADS-B
05:06PM 47.5764 -121.8550 292° West 484 557 38,000  Level FlightAware ADS-B
05:06PM 47.6026 -121.9490 292° West 483 556 38,000  Level FlightAware ADS-B
05:07PM 47.6285 -122.0430 292° West 483 556 38,000  Level FlightAware ADS-B
05:07PM 47.6543 -122.1370 292° West 482 555 38,000  Level FlightAware ADS-B
05:08PM 47.6798 -122.2310 292° West 482 555 38,000  Level FlightAware ADS-B
05:08PM 47.7049 -122.3240 292° West 484 557 38,000  Level FlightAware ADS-B
05:09PM 47.7301 -122.4160 292° West 485 558 38,000  Level FlightAware ADS-B
05:09PM 47.7554 -122.5100 292° West 487 560 38,000  Level FlightAware ADS-B
05:10PM 47.7809 -122.6050 292° West 487 560 38,000  Level FlightAware ADS-B
05:11PM 47.8059 -122.6990 292° West 490 564 38,000  Level FlightAware ADS-B
05:11PM 47.8311 -122.7930 292° West 491 565 38,000  Level FlightAware ADS-B
05:12PM 47.8563 -122.8880 292° West 491 565 38,000  Level FlightAware ADS-B
05:12PM 47.8813 -122.9820 292° West 489 563 38,000  Level FlightAware ADS-B
05:13PM 47.9061 -123.0770 291° West 486 559 38,000  Level FlightAware ADS-B
05:13PM 47.9308 -123.1710 291° West 484 557 38,000  Level FlightAware ADS-B
05:14PM 47.9554 -123.2650 291° West 482 555 38,000  Level FlightAware ADS-B
05:14PM 47.9827 -123.3700 291° West 482 555 38,000  Level FlightAware ADS-B
05:15PM 48.0070 -123.4640 291° West 485 558 38,000  Level FlightAware ADS-B
05:15PM 48.0356 -123.5750 291° West 486 559 38,000  Level FlightAware ADS-B
05:16PM 48.0600 -123.6700 291° West 487 560 38,000  Level FlightAware ADS-B
05:16PM 48.0843 -123.7650 291° West 487 560 38,000  Level FlightAware ADS-B
05:17PM 48.1082 -123.8590 291° West 485 558 38,000  Level FlightAware ADS-B
05:17PM 48.1331 -123.9570 291° West 485 558 38,000  Level FlightAware ADS-B
05:18PM 48.1568 -124.0510 291° West 485 558 38,000  Level FlightAware ADS-B
05:18PM 48.1806 -124.1460 291° West 484 557 38,000  Level FlightAware ADS-B
05:19PM 48.2048 -124.2420 291° West 482 555 38,000  Level FlightAware ADS-B
05:19PM 48.2284 -124.3370 290° West 481 554 38,000  Level FlightAware ADS-B
05:20PM 48.2516 -124.4310 290° West 480 552 38,000  Level FlightAware ADS-B
05:20PM 48.2764 -124.5320 290° West 481 554 38,000  Level FlightAware ADS-B
05:21PM 48.3067 -124.6550 290° West 483 556 38,000  Level FlightAware ADS-B
05:21PM 48.3289 -124.7550 288° West 484 557 38,000  Level FlightAware ADS-B
05:22PM 48.3551 -124.8750 288° West 482 555 38,000  Level FlightAware ADS-B
05:23PM 48.3783 -124.9820 288° West 482 555 38,000  Level FlightAware ADS-B
05:23PM 48.3999 -125.0800 288° West 481 554 38,000  Level FlightAware ADS-B
05:24PM 48.4225 -125.1830 288° West 482 555 38,000  Level FlightAware ADS-B
05:25PM 48.4570 -125.3410 288° West 483 556 38,000  Level FlightAware
05:25PM 48.4820 -125.4550 288° West 483 556 38,000  Level FlightAware
05:26PM 48.5050 -125.5660 287° West 482 555 38,000  Level FlightAware
05:26PM 48.5280 -125.6750 288° West 481 554 38,000  Level FlightAware
05:27PM 48.5520 -125.7880 288° West 481 554 38,000  Level FlightAware
05:27PM 48.5770 -125.9050 288° West 483 556 38,000  Level FlightAware
05:28PM 48.6010 -126.0200 288° West 482 555 38,000  Level FlightAware
05:29PM 48.6290 -126.1580 287° West 482 555 38,000  Level FlightAware
05:30PM 48.6560 -126.2840 288° West 482 555 38,000  Level FlightAware
05:30PM 48.6800 -126.4010 287° West 484 557 38,000  Level FlightAware
05:31PM 48.7060 -126.5290 287° West 484 557 38,000  Level FlightAware
05:31PM 48.7240 -126.6150 288° West 482 555 38,000  Level FlightAware
05:32PM 48.7440 -126.7410 284° West 477 549 38,000  Level FlightAware
05:33PM 48.7540 -126.8750 277° West 475 547 38,000  Level FlightAware
05:33PM 48.7630 -126.9970 276° West 477 549 38,000  Level FlightAware
05:34PM 48.7700 -127.1160 275° West 474 545 38,000  Level FlightAware
05:34PM 48.7770 -127.2210 276° West 473 544 38,000  Level FlightAware
05:35PM 48.7830 -127.3050 276° West 474 545 38,000  Level FlightAware
05:36PM 48.7930 -127.4670 275° West 473 544 38,000  Level FlightAware
05:36PM 48.8010 -127.5870 276° West 472 543 38,000  Level FlightAware
05:37PM 48.8090 -127.7160 275° West 471 542 38,000  Level FlightAware
05:37PM 48.8170 -127.8470 275° West 469 540 38,000  Level FlightAware
05:38PM 48.8220 -127.9430 275° West 469 540 38,000  Level FlightAware
05:39PM 48.8300 -128.0680 276° West 469 540 38,000  Level FlightAware
05:39PM 48.8370 -128.1900 275° West 469 540 38,000  Level FlightAware
05:40PM 48.8430 -128.2910 275° West 469 540 38,000  Level FlightAware
05:41PM 48.8480 -128.3940 274° West 469 540 38,000  Level FlightAware
05:41PM 48.8540 -128.4940 275° West 469 540 38,000  Level FlightAware
05:42PM 48.8600 -128.5950 275° West 469 540 38,000  Level FlightAware
05:42PM 48.8660 -128.6950 275° West 469 540 38,000  Level FlightAware
05:43PM 48.8720 -128.7960 275° West 469 540 38,000  Level FlightAware
05:44PM 48.8770 -128.8990 274° West 469 540 38,000  Level FlightAware
05:44PM 48.8830 -129.0000 275° West 469 540 38,000  Level FlightAware
05:45PM 48.8890 -129.1010 275° West 469 540 38,000  Level FlightAware
05:45PM 48.8950 -129.2010 275° West 469 540 38,000  Level FlightAware
05:46PM 48.9010 -129.3020 275° West 469 540 38,000  Level FlightAware
05:47PM 48.9060 -129.4020 274° West 469 540 38,000  Level FlightAware
05:47PM 48.9120 -129.5030 275° West 469 540 38,000  Level FlightAware
05:48PM 48.9160 -129.5700 275° West 469 540 38,000  Level FlightAware
05:48PM 48.9220 -129.6710 275° West 469 540 38,000  Level FlightAware
05:49PM 48.9167 -130.2000 275° West 470 541 38,000  Level Vancouver Center
05:50PM 48.9167 -130.4000 270° West 470 541 38,000  Level Vancouver Center
05:51PM 48.9333 -130.6167 277° West 470 541 38,000  Level Vancouver Center
05:52PM 48.9333 -130.8167 270° West 470 541 38,000  Level Vancouver Center
05:53PM 48.9500 -131.0000 278° West 460 529 38,000  Level Vancouver Center
05:54PM 48.9500 -131.2000 270° West 470 541 38,000  Level Vancouver Center
05:55PM 48.9500 -131.3833 270° West 470 541 38,000  Level Vancouver Center
05:56PM 48.9500 -131.6167 270° West 470 541 38,000  Level Vancouver Center
05:57PM 48.9667 -131.7833 279° West 460 529 38,000  Level Vancouver Center
05:58PM 48.9667 -131.9667 270° West 470 541 38,000  Level Vancouver Center
05:59PM 48.9667 -132.1667 270° West 450 518 38,000  Level Vancouver Center
06:01PM 48.9795 -132.3718 276° West  Level FlightAware Approximate
06:01PM 49.0000 -132.4500 273° West 477 549 38,000  Level Oakland Oceanic (ODAPS)
06:08PM 49.0370 -133.8396 272° West 477 549 38,000  Level FlightAware Transoceanic
06:09PM 49.0410 -134.0383 272° West 477 549 38,000  Level FlightAware Transoceanic
06:10PM 49.0445 -134.2370 272° West 477 549 38,000  Level FlightAware Transoceanic
06:11PM 49.0478 -134.4357 271° West 477 549 38,000  Level FlightAware Transoceanic
06:12PM 49.0507 -134.6344 271° West 477 549 38,000  Level FlightAware Transoceanic
06:12PM 49.0500 -134.6500 271° West 484 557 38,000  Level Oakland Oceanic (ODAPS)
06:13PM 49.0532 -134.8332 271° West 477 549 38,000  Level FlightAware Transoceanic
06:14PM 49.0555 -135.0320 271° West 477 549 38,000  Level FlightAware Transoceanic
06:15PM 49.0573 -135.2308 271° West 477 549 38,000  Level FlightAware Transoceanic
06:16PM 49.0589 -135.4296 271° West 477 549 38,000  Level FlightAware Transoceanic
06:17PM 49.0601 -135.6285 270° West 477 549 38,000  Level FlightAware Transoceanic
06:18PM 49.0604 -135.8851 270° West 484 557 38,000  Level FlightAware Transoceanic
06:19PM 49.0609 -136.0910 270° West 484 557 38,000  Level FlightAware Transoceanic
06:20PM 49.0610 -136.2969 270° West 484 557 38,000  Level FlightAware Transoceanic
06:21PM 49.0607 -136.5028 270° West 484 557 38,000  Level FlightAware Transoceanic
06:22PM 49.0601 -136.7087 270° West 484 557 38,000  Level FlightAware Transoceanic
06:23PM 49.0590 -136.9146 269° West 484 557 38,000  Level FlightAware Transoceanic
06:24PM 49.0577 -137.1205 269° West 484 557 38,000  Level FlightAware Transoceanic
06:25PM 49.0559 -137.3263 269° West 484 557 38,000  Level FlightAware Transoceanic
06:26PM 49.0538 -137.5322 269° West 484 557 38,000  Level FlightAware Transoceanic
06:26PM 49.0500 -137.5000 269° West 491 565 38,000  Level Oakland Oceanic (ODAPS)
06:27PM 49.0513 -137.7380 269° West 484 557 38,000  Level FlightAware Transoceanic
06:28PM 49.0485 -137.9438 269° West 484 557 38,000  Level FlightAware Transoceanic
06:29PM 49.0453 -138.1496 269° West 484 557 38,000  Level FlightAware Transoceanic
06:30PM 49.0417 -138.3554 268° West 484 557 38,000  Level FlightAware Transoceanic
06:31PM 49.0378 -138.5611 268° West 484 557 38,000  Level FlightAware Transoceanic
06:32PM 49.0317 -138.7506 268° West 491 565 38,000  Level FlightAware Transoceanic
06:33PM 49.0274 -138.9590 268° West 491 565 38,000  Level FlightAware Transoceanic
06:34PM 49.0227 -139.1673 268° West 491 565 38,000  Level FlightAware Transoceanic
06:35PM 49.0176 -139.3755 268° West 491 565 38,000  Level FlightAware Transoceanic
06:36PM 49.0121 -139.5837 268° West 491 565 38,000  Level FlightAware Transoceanic
06:37PM 49.0062 -139.7919 267° West 491 565 38,000  Level FlightAware Transoceanic
06:38PM 49.0000 -140.0000 274° West 491 565 38,000  Level FlightAware Transoceanic
06:38PM 49.0000 -140.0000 274° West 490 564 38,000  Level Oakland Oceanic (ODAPS)
06:39PM 49.0086 -140.2035 274° West 491 565 38,000  Level FlightAware Transoceanic
06:40PM 49.0169 -140.4071 273° West 491 565 38,000  Level FlightAware Transoceanic
06:40PM 49.0167 -140.4000 273° West 495 570 38,000  Level Oakland Oceanic (ODAPS)
06:41PM 49.0248 -140.6108 273° West 491 565 38,000  Level FlightAware Transoceanic
06:42PM 49.0324 -140.8145 273° West 491 565 38,000  Level FlightAware Transoceanic
06:43PM 49.0396 -141.0183 273° West 491 565 38,000  Level FlightAware Transoceanic
06:44PM 49.0464 -141.2221 273° West 490 564 38,000  Level FlightAware Transoceanic
06:45PM 49.0529 -141.4260 273° West 490 564 38,000  Level FlightAware Transoceanic
06:46PM 49.0597 -141.6504 273° West 495 570 38,000  Level FlightAware Transoceanic
06:47PM 49.0655 -141.8590 272° West 495 570 38,000  Level FlightAware Transoceanic
06:48PM 49.0710 -142.0676 272° West 495 570 38,000  Level FlightAware Transoceanic
06:49PM 49.0761 -142.2763 272° West 495 570 38,000  Level FlightAware Transoceanic
06:50PM 49.0808 -142.4850 272° West 495 570 38,000  Level FlightAware Transoceanic
06:51PM 49.0852 -142.6938 272° West 495 570 38,000  Level FlightAware Transoceanic
06:52PM 49.0891 -142.9026 272° West 495 570 38,000  Level FlightAware Transoceanic
06:53PM 49.0928 -143.1114 271° West 495 570 38,000  Level FlightAware Transoceanic
06:54PM 49.0960 -143.3203 271° West 495 570 38,000  Level FlightAware Transoceanic
06:54PM 49.1000 -143.2833 271° West 494 568 38,000  Level Oakland Oceanic (ODAPS)
06:55PM 49.0988 -143.5292 271° West 495 570 38,000  Level FlightAware Transoceanic
06:56PM 49.1013 -143.7381 271° West 495 570 38,000  Level FlightAware Transoceanic
06:57PM 49.1034 -143.9470 271° West 495 570 38,000  Level FlightAware Transoceanic
06:58PM 49.1051 -144.1560 271° West 495 570 38,000  Level FlightAware Transoceanic
06:59PM 49.1064 -144.3649 270° West 495 570 38,000  Level FlightAware Transoceanic
07:00PM 49.1110 -144.5439 270° West 494 568 38,000  Level FlightAware Transoceanic
07:01PM 49.1115 -144.7541 270° West 494 568 38,000  Level FlightAware Transoceanic
07:02PM 49.1116 -144.9642 270° West 494 568 38,000  Level FlightAware Transoceanic
07:03PM 49.1113 -145.1743 270° West 494 568 38,000  Level FlightAware Transoceanic
07:04PM 49.1106 -145.3845 270° West 494 568 38,000  Level FlightAware Transoceanic
07:05PM 49.1096 -145.5946 269° West 494 568 38,000  Level FlightAware Transoceanic
07:06PM 49.1082 -145.8047 269° West 494 568 38,000  Level FlightAware Transoceanic
07:07PM 49.1064 -146.0148 269° West 494 568 38,000  Level FlightAware Transoceanic
07:08PM 49.1042 -146.2249 269° West 494 568 38,000  Level FlightAware Transoceanic
07:08PM 49.1000 -146.1667 269° West 490 564 38,000  Level Oakland Oceanic (ODAPS)
07:09PM 49.1017 -146.4350 269° West 494 568 38,000  Level FlightAware Transoceanic
07:10PM 49.0987 -146.6451 269° West 494 568 38,000  Level FlightAware Transoceanic
07:11PM 49.0954 -146.8551 269° West 494 568 38,000  Level FlightAware Transoceanic
07:12PM 49.0917 -147.0651 268° West 494 568 38,000  Level FlightAware Transoceanic
07:13PM 49.0876 -147.2750 268° West 494 568 38,000  Level FlightAware Transoceanic
07:14PM 49.0808 -147.4460 268° West 490 564 38,000  Level FlightAware Transoceanic
07:15PM 49.0762 -147.6591 268° West 490 564 38,000  Level FlightAware Transoceanic
07:16PM 49.0712 -147.8722 268° West 490 564 38,000  Level FlightAware Transoceanic
07:17PM 49.0659 -148.0853 268° West 490 564 38,000  Level FlightAware Transoceanic
07:18PM 49.0601 -148.2982 268° West 490 564 38,000  Level FlightAware Transoceanic
07:19PM 49.0540 -148.5112 267° West 490 564 38,000  Level FlightAware Transoceanic
07:20PM 49.0474 -148.7241 267° West 490 564 38,000  Level FlightAware Transoceanic
07:21PM 49.0405 -148.9369 267° West 490 564 38,000  Level FlightAware Transoceanic
07:21PM 49.0333 -149.0500 267° West 494 568 38,000  Level Oakland Oceanic (ODAPS)
07:22PM 49.0332 -149.1496 267° West 490 564 38,000  Level FlightAware Transoceanic
07:23PM 49.0255 -149.3623 267° West 490 564 38,000  Level FlightAware Transoceanic
07:24PM 49.0174 -149.5750 267° West 490 564 38,000  Level FlightAware Transoceanic
07:25PM 49.0089 -149.7875 266° West 490 564 38,000  Level FlightAware Transoceanic
07:26PM 49.0000 -150.0000 265° West 490 564 38,000  Level FlightAware Transoceanic
07:26PM 49.0000 -150.0000 265° West 508 585 38,000  Level Oakland Oceanic (ODAPS)
07:27PM 48.9886 -150.2034 265° West 490 564 38,000  Level FlightAware Transoceanic
07:28PM 48.9763 -150.4149 265° West 494 568 38,000  Level FlightAware Transoceanic
07:29PM 48.9639 -150.6223 265° West 494 568 38,000  Level FlightAware Transoceanic
07:30PM 48.9512 -150.8295 265° West 494 568 38,000  Level FlightAware Transoceanic
07:31PM 48.9380 -151.0366 264° West 494 568 38,000  Level FlightAware Transoceanic
07:32PM 48.9228 -151.2694 264° West 508 585 38,000  Level FlightAware Transoceanic
07:33PM 48.9086 -151.4806 264° West 508 585 38,000  Level FlightAware Transoceanic
07:34PM 48.8940 -151.6917 264° West 508 585 38,000  Level FlightAware Transoceanic
07:35PM 48.8790 -151.9026 264° West 508 585 38,000  Level FlightAware Transoceanic
07:35PM 48.8667 -151.9833 264° West 508 585 38,000  Level Oakland Oceanic (ODAPS)
07:36PM 48.8637 -152.1134 264° West 508 585 38,000  Level FlightAware Transoceanic
07:37PM 48.8479 -152.3241 263° West 508 585 38,000  Level FlightAware Transoceanic
07:38PM 48.8318 -152.5346 263° West 508 585 38,000  Level FlightAware Transoceanic
07:39PM 48.8152 -152.7450 263° West 508 585 38,000  Level FlightAware Transoceanic
07:40PM 48.7983 -152.9552 263° West 508 585 38,000  Level FlightAware Transoceanic
07:41PM 48.7811 -153.1654 263° West 508 585 38,000  Level FlightAware Transoceanic
07:42PM 48.7671 -153.2661 263° West 508 585 38,000  Level FlightAware Transoceanic
07:43PM 48.7491 -153.4794 263° West 508 585 38,000  Level FlightAware Transoceanic
07:44PM 48.7308 -153.6925 262° West 508 585 38,000  Level FlightAware Transoceanic
07:45PM 48.7120 -153.9055 262° West 508 585 38,000  Level FlightAware Transoceanic
07:46PM 48.6929 -154.1183 262° West 508 585 38,000  Level FlightAware Transoceanic
07:47PM 48.6733 -154.3310 262° West 508 585 38,000  Level FlightAware Transoceanic
07:48PM 48.6534 -154.5434 262° West 508 585 38,000  Level FlightAware Transoceanic
07:49PM 48.6331 -154.7558 262° West 508 585 38,000  Level FlightAware Transoceanic
07:49PM 48.6167 -154.9167 262° West 513 590 38,000  Level Oakland Oceanic (ODAPS)
07:50PM 48.6124 -154.9679 262° West 508 585 38,000  Level FlightAware Transoceanic
07:51PM 48.5913 -155.1799 261° West 508 585 38,000  Level FlightAware Transoceanic
07:52PM 48.5698 -155.3916 261° West 508 585 38,000  Level FlightAware Transoceanic
07:53PM 48.5479 -155.6033 261° West 508 585 38,000  Level FlightAware Transoceanic
07:54PM 48.5256 -155.8147 261° West 508 585 38,000  Level FlightAware Transoceanic
07:55PM 48.4892 -156.1476 261° West 513 590 38,000  Level FlightAware Transoceanic
07:56PM 48.4667 -156.3521 260° West 513 590 38,000  Level FlightAware Transoceanic
07:57PM 48.4438 -156.5565 260° West 513 590 38,000  Level FlightAware Transoceanic
07:58PM 48.4205 -156.7606 260° West 513 590 38,000  Level FlightAware Transoceanic
07:59PM 48.3969 -156.9646 260° West 513 590 38,000  Level FlightAware Transoceanic
08:00PM 48.3730 -157.1684 260° West 513 590 38,000  Level FlightAware Transoceanic
08:00PM 48.3833 -157.1167 260° West 504 580 38,000  Level Oakland Oceanic (ODAPS)
08:01PM 48.3486 -157.3720 260° West 513 590 38,000  Level FlightAware Transoceanic
08:02PM 48.3240 -157.5754 260° West 513 590 38,000  Level FlightAware Transoceanic
08:03PM 48.2989 -157.7786 259° West 513 590 38,000  Level FlightAware Transoceanic
08:04PM 48.2735 -157.9816 259° West 513 590 38,000  Level FlightAware Transoceanic
08:05PM 48.2477 -158.1844 259° West 513 590 38,000  Level FlightAware Transoceanic
08:06PM 48.2279 -158.3576 259° West 504 580 38,000  Level FlightAware Transoceanic
08:07PM 48.2007 -158.5637 259° West 504 580 38,000  Level FlightAware Transoceanic
08:08PM 48.1731 -158.7696 259° West 504 580 38,000  Level FlightAware Transoceanic
08:09PM 48.1452 -158.9752 258° West 504 580 38,000  Level FlightAware Transoceanic
08:10PM 48.1169 -159.1806 258° West 504 580 38,000  Level FlightAware Transoceanic
08:11PM 48.0882 -159.3858 258° West 504 580 38,000  Level FlightAware Transoceanic
08:12PM 48.0592 -159.5908 258° West 504 580 38,000  Level FlightAware Transoceanic
08:13PM 48.0298 -159.7955 258° West 504 580 38,000  Level FlightAware Transoceanic
08:14PM 48.0000 -160.0000 257° West 504 580 38,000  Level FlightAware Transoceanic
08:15PM 47.9699 -160.1990 257° West 504 580 38,000  Level FlightAware Transoceanic
08:16PM 47.9395 -160.3978 257° West 504 580 38,000  Level FlightAware Transoceanic
08:17PM 47.9088 -160.5964 257° West 504 580 38,000  Level FlightAware Transoceanic
08:18PM 47.8777 -160.7947 257° West 504 580 38,000  Level FlightAware Transoceanic
08:19PM 47.8463 -160.9928 257° West 504 580 38,000  Level FlightAware Transoceanic
08:20PM 47.8145 -161.1906 256° West 504 580 38,000  Level FlightAware Transoceanic
08:21PM 47.7824 -161.3882 256° West 504 580 38,000  Level FlightAware Transoceanic
08:22PM 47.7499 -161.5856 256° West 504 580 38,000  Level FlightAware Transoceanic
08:23PM 47.7172 -161.7827 256° West 504 580 38,000  Level FlightAware Transoceanic
08:24PM 47.6840 -161.9795 256° West 504 580 38,000  Level FlightAware Transoceanic
08:25PM 47.6506 -162.1761 256° West 504 580 38,000  Level FlightAware Transoceanic
08:26PM 47.6168 -162.3725 256° West 504 580 38,000 1,260 Level FlightAware Transoceanic
08:26PM 47.6500 -162.2000 256° West 491 565 40,000  Climbing Oakland Oceanic (ODAPS)
08:27PM 47.5826 -162.5686 255° West 504 580 38,000 -1,380 Descending FlightAware Transoceanic
08:28PM 47.5482 -162.7644 255° West 504 580 38,000  Level FlightAware Transoceanic
08:29PM 47.5134 -162.9600 255° West 504 580 38,000  Level FlightAware Transoceanic
08:30PM 47.4783 -163.1553 255° West 504 580 38,000  Level FlightAware Transoceanic
08:31PM 47.4428 -163.3504 255° West 504 580 38,000  Level FlightAware Transoceanic
08:32PM 47.4070 -163.5452 255° West 504 580 38,000 960 Level FlightAware Transoceanic
08:33PM 47.3702 -163.7588 255° West 491 565 40,000 960 Climbing FlightAware Transoceanic
08:34PM 47.3337 -163.9525 254° West 491 565 40,000  Level FlightAware Transoceanic
08:35PM 47.2969 -164.1459 254° West 491 565 40,000  Level FlightAware Transoceanic
08:36PM 47.2598 -164.3390 254° West 491 565 40,000  Level FlightAware Transoceanic
08:37PM 47.2224 -164.5318 254° West 491 565 40,000  Level FlightAware Transoceanic
08:38PM 47.1846 -164.7244 254° West 491 565 40,000  Level FlightAware Transoceanic
08:39PM 47.1466 -164.9167 254° West 491 565 40,000  Level FlightAware Transoceanic
08:40PM 47.1082 -165.1088 254° West 491 565 40,000  Level FlightAware Transoceanic
08:41PM 47.0694 -165.3005 253° West 491 565 40,000  Level FlightAware Transoceanic
08:42PM 47.0304 -165.4920 253° West 491 565 40,000  Level FlightAware Transoceanic
08:43PM 46.9910 -165.6832 253° West 491 565 40,000  Level FlightAware Transoceanic
08:44PM 46.9514 -165.8741 253° West 491 565 40,000  Level FlightAware Transoceanic
08:45PM 46.9114 -166.0647 253° West 491 565 40,000  Level FlightAware Transoceanic
08:46PM 46.8711 -166.2551 253° West 491 565 40,000  Level FlightAware Transoceanic
08:47PM 46.8304 -166.4451 253° West 491 565 40,000  Level FlightAware Transoceanic
08:47PM 47.0500 -165.3667 253° West 487 560 40,000  Level Oakland Oceanic (ODAPS)
08:48PM 46.7895 -166.6349 252° West 491 565 40,000  Level FlightAware Transoceanic
08:49PM 46.7483 -166.8244 252° West 491 565 40,000  Level FlightAware Transoceanic
08:50PM 46.7067 -167.0136 252° West 491 565 40,000  Level FlightAware Transoceanic
08:51PM 46.6648 -167.2025 252° West 491 565 40,000  Level FlightAware Transoceanic
08:52PM 46.6226 -167.3911 252° West 491 565 40,000  Level FlightAware Transoceanic
08:53PM 46.6111 -167.4274 252° West 487 560 40,000  Level FlightAware Transoceanic
08:54PM 46.5694 -167.6130 252° West 487 560 40,000  Level FlightAware Transoceanic
08:55PM 46.5273 -167.7984 252° West 487 560 40,000  Level FlightAware Transoceanic
08:56PM 46.4850 -167.9835 252° West 487 560 40,000  Level FlightAware Transoceanic
08:56PM 46.5000 -167.9333 251° West 482 555 40,000  Level Oakland Oceanic (ODAPS)
08:57PM 46.4424 -168.1682 251° West 487 560 40,000  Level FlightAware Transoceanic
08:58PM 46.3995 -168.3527 251° West 487 560 40,000  Level FlightAware Transoceanic
08:59PM 46.3563 -168.5370 251° West 487 560 40,000  Level FlightAware Transoceanic
09:00PM 46.3128 -168.7209 251° West 487 560 40,000  Level FlightAware Transoceanic
09:01PM 46.2690 -168.9045 251° West 487 560 40,000  Level FlightAware Transoceanic
09:02PM 46.2319 -169.0653 251° West 482 555 40,000  Level FlightAware Transoceanic
09:03PM 46.1861 -169.2529 251° West 482 555 40,000  Level FlightAware Transoceanic
09:04PM 46.1400 -169.4401 250° West 482 555 40,000  Level FlightAware Transoceanic
09:05PM 46.0937 -169.6271 250° West 482 555 40,000  Level FlightAware Transoceanic
09:06PM 46.0470 -169.8137 250° West 482 555 40,000  Level FlightAware Transoceanic
09:07PM 46.0000 -170.0000 265° West 482 555 40,000  Level FlightAware Transoceanic
09:08PM 45.9891 -170.1952 265° West 482 555 40,000  Level FlightAware Transoceanic
09:08PM 45.9833 -170.2000 265° West 486 559 40,000  Level Oakland Oceanic (ODAPS)
09:09PM 45.9779 -170.3904 265° West 482 555 40,000  Level FlightAware Transoceanic
09:09PM 45.9667 -170.4667 265° West 475 547 40,000  Level Oakland Oceanic (ODAPS)
09:10PM 45.9663 -170.5854 265° West 482 555 40,000  Level FlightAware Transoceanic
09:11PM 45.9544 -170.7804 265° West 482 555 40,000  Level FlightAware Transoceanic
09:12PM 45.9421 -170.9753 265° West 482 555 40,000  Level FlightAware Transoceanic
09:13PM 45.9296 -171.1701 265° West 482 555 40,000  Level FlightAware Transoceanic
09:14PM 45.9130 -171.3465 265° West 486 559 40,000  Level FlightAware Transoceanic
09:15PM 45.9002 -171.5372 264° West 486 559 40,000  Level FlightAware Transoceanic
09:16PM 45.8929 -171.6263 264° West 475 547 40,000  Level FlightAware Transoceanic
09:17PM 45.8795 -171.8192 264° West 475 547 40,000  Level FlightAware Transoceanic
09:18PM 45.8657 -172.0121 264° West 475 547 40,000  Level FlightAware Transoceanic
09:19PM 45.8517 -172.2049 264° West 475 547 40,000  Level FlightAware Transoceanic
09:20PM 45.8372 -172.3976 264° West 475 547 40,000  Level FlightAware Transoceanic
09:21PM 45.8225 -172.5901 264° West 475 547 40,000  Level FlightAware Transoceanic
09:22PM 45.8075 -172.7826 264° West 475 547 40,000  Level FlightAware Transoceanic
09:23PM 45.7921 -172.9749 263° West 475 547 40,000  Level FlightAware Transoceanic
09:23PM 45.7833 -173.0667 263° West 471 542 40,000  Level Oakland Oceanic (ODAPS)
09:24PM 45.7764 -173.1672 263° West 475 547 40,000  Level FlightAware Transoceanic
09:25PM 45.7604 -173.3593 263° West 475 547 40,000  Level FlightAware Transoceanic
09:26PM 45.7440 -173.5514 263° West 475 547 40,000  Level FlightAware Transoceanic
09:27PM 45.7274 -173.7433 263° West 475 547 40,000  Level FlightAware Transoceanic
09:28PM 45.7104 -173.9351 263° West 475 547 40,000  Level FlightAware Transoceanic
09:29PM 45.6931 -174.1268 263° West 475 547 40,000  Level FlightAware Transoceanic
09:30PM 45.6850 -174.2033 263° West 471 542 40,000  Level FlightAware Transoceanic
09:31PM 45.6675 -174.3924 262° West 471 542 40,000  Level FlightAware Transoceanic
09:32PM 45.6497 -174.5813 262° West 471 542 40,000  Level FlightAware Transoceanic
09:33PM 45.6316 -174.7701 262° West 471 542 40,000  Level FlightAware Transoceanic
09:34PM 45.6132 -174.9588 262° West 471 542 40,000  Level FlightAware Transoceanic
09:35PM 45.5945 -175.1474 262° West 471 542 40,000  Level FlightAware Transoceanic
09:36PM 45.5754 -175.3358 262° West 471 542 40,000  Level FlightAware Transoceanic
09:37PM 45.5561 -175.5241 262° West 471 542 40,000  Level FlightAware Transoceanic
09:37PM 45.5500 -175.6333 261° West 479 551 40,000  Level Oakland Oceanic (ODAPS)
09:38PM 45.5364 -175.7123 261° West 471 542 40,000  Level FlightAware Transoceanic
09:39PM 45.5164 -175.9003 261° West 471 542 40,000  Level FlightAware Transoceanic
09:40PM 45.4962 -176.0882 261° West 471 542 40,000  Level FlightAware Transoceanic
09:41PM 45.4756 -176.2760 261° West 471 542 40,000  Level FlightAware Transoceanic
09:42PM 45.4547 -176.4636 261° West 471 542 40,000  Level FlightAware Transoceanic
09:43PM 45.4282 -176.7328 261° West 479 551 40,000  Level FlightAware Transoceanic
09:44PM 45.4068 -176.9155 260° West 479 551 40,000  Level FlightAware Transoceanic
09:45PM 45.3852 -177.0982 260° West 479 551 40,000  Level FlightAware Transoceanic
09:46PM 45.3633 -177.2807 260° West 479 551 40,000  Level FlightAware Transoceanic
09:47PM 45.3411 -177.4630 260° West 479 551 40,000  Level FlightAware Transoceanic
09:48PM 45.3186 -177.6452 260° West 479 551 40,000  Level FlightAware Transoceanic
09:49PM 45.2958 -177.8273 260° West 479 551 40,000  Level FlightAware Transoceanic
09:50PM 45.2727 -178.0092 260° West 479 551 40,000  Level FlightAware Transoceanic
09:51PM 45.2494 -178.1909 260° West 479 551 40,000  Level FlightAware Transoceanic
09:51PM 45.2500 -178.2167 259° West 474 545 40,000  Level Oakland Oceanic (ODAPS)
09:52PM 45.2257 -178.3725 259° West 479 551 40,000  Level FlightAware Transoceanic
09:53PM 45.2018 -178.5540 259° West 479 551 40,000  Level FlightAware Transoceanic
09:54PM 45.1776 -178.7353 259° West 479 551 40,000  Level FlightAware Transoceanic
09:55PM 45.1530 -178.9164 259° West 479 551 40,000  Level FlightAware Transoceanic
09:56PM 45.1283 -179.0974 259° West 479 551 40,000  Level FlightAware Transoceanic
09:57PM 45.1032 -179.2783 259° West 479 551 40,000  Level FlightAware Transoceanic
09:58PM 45.0779 -179.4666 259° West 474 545 40,000  Level FlightAware Transoceanic
09:59PM 45.0522 -179.6446 258° West 474 545 40,000  Level FlightAware Transoceanic
10:00PM 45.0262 -179.8224 258° West 474 545 40,000  Level FlightAware Transoceanic
10:01PM 45.0000 -180.0000 258° West 474 545 40,000  Level FlightAware Transoceanic
10:01PM 45.0000 180.0000 258° West 480 552 40,000  Level Oakland Oceanic (ODAPS)
10:02PM 44.9731 179.8222 258° West 474 545 40,000  Level FlightAware Transoceanic
10:03PM 44.9459 179.6445 258° West 474 545 40,000  Level FlightAware Transoceanic
10:04PM 44.9184 179.4670 258° West 474 545 40,000  Level FlightAware Transoceanic
10:05PM 44.8906 179.2897 257° West 474 545 40,000  Level FlightAware Transoceanic
10:05PM 44.8833 179.2500 257° West 479 551 40,000  Level Oakland Oceanic (ODAPS)
10:06PM 44.8626 179.1125 257° West 474 545 40,000  Level FlightAware Transoceanic
10:07PM 44.8282 178.8976 257° West 480 552 40,000  Level FlightAware Transoceanic
10:08PM 44.7985 178.7145 257° West 480 552 40,000  Level FlightAware Transoceanic
10:09PM 44.7686 178.5316 257° West 480 552 40,000  Level FlightAware Transoceanic
10:10PM 44.7383 178.3489 257° West 480 552 40,000  Level FlightAware Transoceanic
10:11PM 44.7048 178.1538 257° West 479 551 40,000  Level FlightAware Transoceanic
10:12PM 44.6740 177.9718 257° West 479 551 40,000  Level FlightAware Transoceanic
10:13PM 44.6429 177.7899 256° West 479 551 40,000  Level FlightAware Transoceanic
10:14PM 44.6115 177.6083 256° West 479 551 40,000  Level FlightAware Transoceanic
10:15PM 44.5799 177.4268 256° West 479 551 40,000  Level FlightAware Transoceanic
10:16PM 44.5480 177.2456 256° West 479 551 40,000  Level FlightAware Transoceanic
10:17PM 44.5158 177.0646 256° West 479 551 40,000  Level FlightAware Transoceanic
10:18PM 44.4833 176.8837 256° West 479 551 40,000  Level FlightAware Transoceanic
10:19PM 44.4505 176.7031 256° West 479 551 40,000  Level FlightAware Transoceanic
10:19PM 44.4500 176.7333 256° West 475 547 40,000  Level Oakland Oceanic (ODAPS)
10:20PM 44.4174 176.5226 256° West 479 551 40,000  Level FlightAware Transoceanic
10:21PM 44.3840 176.3424 255° West 479 551 40,000  Level FlightAware Transoceanic
10:22PM 44.3504 176.1624 255° West 479 551 40,000  Level FlightAware Transoceanic
10:23PM 44.3165 175.9825 255° West 479 551 40,000  Level FlightAware Transoceanic
10:24PM 44.2823 175.8029 255° West 479 551 40,000  Level FlightAware Transoceanic
10:25PM 44.2529 175.6766 255° West 475 547 40,000  Level FlightAware Transoceanic
10:26PM 44.2192 175.5012 255° West 475 547 40,000  Level FlightAware Transoceanic
10:27PM 44.1851 175.3260 255° West 475 547 40,000  Level FlightAware Transoceanic
10:28PM 44.1508 175.1510 255° West 475 547 40,000  Level FlightAware Transoceanic
10:29PM 44.1162 174.9762 255° West 475 547 40,000  Level FlightAware Transoceanic
10:30PM 44.0813 174.8016 254° West 475 547 40,000  Level FlightAware Transoceanic
10:31PM 44.0462 174.6272 254° West 475 547 40,000  Level FlightAware Transoceanic
10:32PM 44.0108 174.4530 254° West 475 547 40,000  Level FlightAware Transoceanic
10:33PM 43.9752 174.2790 254° West 475 547 40,000  Level FlightAware Transoceanic
10:33PM 43.9833 174.3000 254° West 474 545 40,000  Level Oakland Oceanic (ODAPS)
10:34PM 43.9393 174.1052 254° West 475 547 40,000  Level FlightAware Transoceanic
10:35PM 43.9031 173.9317 254° West 475 547 40,000  Level FlightAware Transoceanic
10:36PM 43.8667 173.7583 254° West 475 547 40,000  Level FlightAware Transoceanic
10:37PM 43.8300 173.5852 254° West 475 547 40,000  Level FlightAware Transoceanic
10:38PM 43.7930 173.4122 253° West 475 547 40,000  Level FlightAware Transoceanic
10:39PM 43.7621 173.2553 253° West 474 545 40,000  Level FlightAware Transoceanic
10:40PM 43.7243 173.0820 253° West 474 545 40,000  Level FlightAware Transoceanic
10:41PM 43.6863 172.9088 253° West 474 545 40,000  Level FlightAware Transoceanic
10:42PM 43.6480 172.7359 253° West 474 545 40,000  Level FlightAware Transoceanic
10:43PM 43.6094 172.5632 253° West 474 545 40,000  Level FlightAware Transoceanic
10:44PM 43.5705 172.3908 253° West 474 545 40,000  Level FlightAware Transoceanic
10:45PM 43.5315 172.2185 253° West 474 545 40,000  Level FlightAware Transoceanic
10:46PM 43.4921 172.0465 252° West 474 545 40,000  Level FlightAware Transoceanic
10:46PM 43.4667 171.9167 252° West 465 535 40,000  Level Oakland Oceanic (ODAPS)
10:47PM 43.4525 171.8747 252° West 474 545 40,000  Level FlightAware Transoceanic
10:48PM 43.4126 171.7031 252° West 474 545 40,000  Level FlightAware Transoceanic
10:49PM 43.3725 171.5318 252° West 474 545 40,000  Level FlightAware Transoceanic
10:50PM 43.3321 171.3607 252° West 474 545 40,000  Level FlightAware Transoceanic
10:51PM 43.2915 171.1898 252° West 474 545 40,000  Level FlightAware Transoceanic
10:52PM 43.2506 171.0191 252° West 474 545 40,000  Level FlightAware Transoceanic
10:53PM 43.2161 170.8676 251° West 465 535 40,000  Level FlightAware Transoceanic
10:54PM 43.1734 170.6936 251° West 465 535 40,000  Level FlightAware Transoceanic
10:55PM 43.1304 170.5198 251° West 465 535 40,000  Level FlightAware Transoceanic
10:56PM 43.0872 170.3463 251° West 465 535 40,000  Level FlightAware Transoceanic
10:57PM 43.0437 170.1730 251° West 465 535 40,000  Level FlightAware Transoceanic
10:58PM 43.0000 170.0000 252° West 465 535 40,000  Level FlightAware Transoceanic
10:58PM 43.0000 170.0000 252° West 453 521 40,000  Level Oakland Oceanic (ODAPS)
10:59PM 42.9612 169.8417 251° West 465 535 40,000  Level FlightAware Transoceanic
11:00PM 42.9222 169.6836 251° West 465 535 40,000  Level FlightAware Transoceanic
11:00PM 42.9167 169.6833 251° West 451 519 40,000  Level Oakland Oceanic (ODAPS)
11:01PM 42.8830 169.5256 251° West 465 535 40,000  Level FlightAware Transoceanic
11:02PM 42.8436 169.3679 251° West 465 535 40,000  Level FlightAware Transoceanic
11:03PM 42.8039 169.2104 251° West 465 535 40,000  Level FlightAware Transoceanic
11:04PM 42.7641 169.0531 251° West 465 535 40,000  Level FlightAware Transoceanic
11:05PM 42.7566 169.0236 251° West 453 521 40,000  Level FlightAware Transoceanic
11:06PM 42.7152 168.8616 251° West 453 521 40,000  Level FlightAware Transoceanic
11:07PM 42.6708 168.7086 251° West 451 519 40,000  Level FlightAware Transoceanic
11:08PM 42.6291 168.5469 251° West 451 519 40,000  Level FlightAware Transoceanic
11:09PM 42.5871 168.3854 250° West 451 519 40,000  Level FlightAware Transoceanic
11:10PM 42.5448 168.2242 250° West 451 519 40,000  Level FlightAware Transoceanic
11:11PM 42.5024 168.0631 250° West 451 519 40,000  Level FlightAware Transoceanic
11:12PM 42.4597 167.9023 250° West 451 519 40,000  Level FlightAware Transoceanic
11:13PM 42.4168 167.7417 250° West 451 519 40,000  Level FlightAware Transoceanic
11:14PM 42.3737 167.5813 250° West 451 519 40,000  Level FlightAware Transoceanic
11:14PM 42.3500 167.4833 250° West 446 513 40,000  Level Oakland Oceanic (ODAPS)
11:15PM 42.3303 167.4211 250° West 451 519 40,000  Level FlightAware Transoceanic
11:16PM 42.2868 167.2612 250° West 451 519 40,000  Level FlightAware Transoceanic
11:17PM 42.2430 167.1015 250° West 451 519 40,000  Level FlightAware Transoceanic
11:18PM 42.1990 166.9420 250° West 451 519 40,000  Level FlightAware Transoceanic
11:19PM 42.1548 166.7827 249° West 451 519 40,000  Level FlightAware Transoceanic
11:20PM 42.0941 166.5572 249° West 446 513 40,000  Level FlightAware Transoceanic
11:21PM 42.0507 166.4035 249° West 446 513 40,000  Level FlightAware Transoceanic
11:22PM 42.0071 166.2501 249° West 446 513 40,000  Level FlightAware Transoceanic
11:23PM 41.9633 166.0969 249° West 446 513 40,000  Level FlightAware Transoceanic
11:24PM 41.9194 165.9439 249° West 446 513 40,000  Level FlightAware Transoceanic
11:25PM 41.8752 165.7911 249° West 446 513 40,000  Level FlightAware Transoceanic
11:26PM 41.8308 165.6385 249° West 446 513 40,000  Level FlightAware Transoceanic
11:27PM 41.7862 165.4862 249° West 446 513 40,000  Level FlightAware Transoceanic
11:28PM 41.7414 165.3340 248° West 446 513 40,000  Level FlightAware Transoceanic
11:28PM 41.7500 165.3667 248° West 442 509 40,000  Level Oakland Oceanic (ODAPS)
11:29PM 41.6964 165.1821 248° West 446 513 40,000  Level FlightAware Transoceanic
11:30PM 41.6512 165.0303 248° West 446 513 40,000  Level FlightAware Transoceanic
11:31PM 41.6058 164.8788 248° West 446 513 40,000  Level FlightAware Transoceanic
11:32PM 41.5602 164.7275 248° West 446 513 40,000  Level FlightAware Transoceanic
11:33PM 41.5144 164.5765 248° West 446 513 40,000  Level FlightAware Transoceanic
11:34PM 41.4758 164.4526 248° West 442 509 40,000  Level FlightAware Transoceanic
11:35PM 41.4294 164.3010 248° West 442 509 40,000  Level FlightAware Transoceanic
11:36PM 41.3828 164.1496 248° West 442 509 40,000  Level FlightAware Transoceanic
11:37PM 41.3360 163.9984 248° West 442 509 40,000  Level FlightAware Transoceanic
11:38PM 41.2891 163.8475 247° West 442 509 40,000  Level FlightAware Transoceanic
11:39PM 41.2419 163.6968 247° West 442 509 40,000  Level FlightAware Transoceanic
11:40PM 41.1945 163.5463 247° West 442 509 40,000  Level FlightAware Transoceanic
11:41PM 41.1469 163.3960 247° West 442 509 40,000  Level FlightAware Transoceanic
11:42PM 41.0991 163.2459 247° West 442 509 40,000  Level FlightAware Transoceanic
11:43PM 41.0512 163.0961 247° West 442 509 40,000  Level FlightAware Transoceanic
11:44PM 41.0030 162.9464 247° West 442 509 40,000  Level FlightAware Transoceanic
11:45PM 40.9547 162.7970 247° West 442 509 40,000  Level FlightAware Transoceanic
11:46PM 40.9061 162.6478 247° West 442 509 40,000  Level FlightAware Transoceanic
11:47PM 40.8574 162.4989 247° West 442 509 40,000  Level FlightAware Transoceanic
11:48PM 40.8084 162.3501 246° West 442 509 40,000  Level FlightAware Transoceanic
11:49PM 40.7593 162.2016 246° West 442 509 40,000  Level FlightAware Transoceanic
11:50PM 40.7100 162.0533 246° West 442 509 40,000  Level FlightAware Transoceanic
11:51PM 40.6605 161.9052 246° West 442 509 40,000  Level FlightAware Transoceanic
11:52PM 40.6108 161.7573 246° West 442 509 40,000  Level FlightAware Transoceanic
11:53PM 40.5609 161.6096 246° West 442 509 40,000  Level FlightAware Transoceanic
11:54PM 40.5109 161.4622 246° West 442 509 40,000  Level FlightAware Transoceanic
11:55PM 40.4606 161.3150 246° West 442 509 40,000  Level FlightAware Transoceanic
11:56PM 40.4102 161.1680 246° West 442 509 40,000  Level FlightAware Transoceanic
11:57PM 40.3595 161.0212 246° West 442 509 40,000  Level FlightAware Transoceanic
11:58PM 40.3087 160.8747 245° Southwest 442 509 40,000  Level FlightAware Transoceanic
11:59PM 40.2577 160.7283 245° Southwest 442 509 40,000  Level FlightAware Transoceanic
12:00AM 40.2066 160.5822 245° Southwest 442 509 40,000  Level FlightAware Transoceanic
12:01AM 40.1552 160.4363 245° Southwest 442 509 40,000  Level FlightAware Transoceanic
12:02AM 40.1036 160.2907 245° Southwest 442 509 40,000  Level FlightAware Transoceanic
12:03AM 40.0519 160.1452 245° Southwest 442 509 40,000  Level FlightAware Transoceanic
12:04AM 40.0000 160.0000 252° West 442 509 40,000  Level FlightAware Transoceanic
12:05AM 39.9633 159.8514 252° West 442 509 40,000  Level FlightAware Transoceanic
12:06AM 39.9264 159.7029 252° West 442 509 40,000  Level FlightAware Transoceanic
12:07AM 39.8894 159.5546 252° West 442 509 40,000  Level FlightAware Transoceanic
12:08AM 39.8521 159.4064 252° West 442 509 40,000  Level FlightAware Transoceanic
12:09AM 39.8147 159.2585 252° West 442 509 40,000  Level FlightAware Transoceanic
12:10AM 39.7771 159.1106 252° West 442 509 40,000  Level FlightAware Transoceanic
12:11AM 39.7393 158.9630 252° West 442 509 40,000  Level FlightAware Transoceanic
12:12AM 39.7013 158.8155 251° West 442 509 40,000  Level FlightAware Transoceanic
12:13AM 39.6631 158.6681 251° West 442 509 40,000  Level FlightAware Transoceanic
12:14AM 39.6247 158.5210 251° West 442 509 40,000  Level FlightAware Transoceanic
12:15AM 39.5862 158.3739 251° West 442 509 40,000  Level FlightAware Transoceanic
12:16AM 39.5474 158.2271 251° West 442 509 40,000  Level FlightAware Transoceanic
12:17AM 39.5085 158.0804 251° West 442 509 40,000  Level FlightAware Transoceanic
12:18AM 39.4694 157.9339 251° West 442 509 40,000  Level FlightAware Transoceanic
12:19AM 39.4301 157.7875 251° West 442 509 40,000  Level FlightAware Transoceanic
12:20AM 39.3906 157.6413 251° West 442 509 40,000  Level FlightAware Transoceanic
12:21AM 39.3510 157.4953 251° West 442 509 40,000  Level FlightAware Transoceanic
12:22AM 39.3111 157.3495 251° West 442 509 40,000  Level FlightAware Transoceanic
12:23AM 39.2711 157.2038 250° West 442 509 40,000  Level FlightAware Transoceanic
12:24AM 39.2309 157.0582 250° West 442 509 40,000  Level FlightAware Transoceanic
12:25AM 39.1905 156.9129 250° West 442 509 40,000  Level FlightAware Transoceanic
12:26AM 39.1500 156.7677 250° West 442 509 40,000  Level FlightAware Transoceanic
12:27AM 39.1092 156.6227 250° West 442 509 40,000  Level FlightAware Transoceanic
12:28AM 39.0683 156.4778 250° West 442 509 40,000  Level FlightAware Transoceanic
12:29AM 39.0272 156.3331 250° West 442 509 40,000  Level FlightAware Transoceanic
12:30AM 38.9859 156.1886 250° West 442 509 40,000  Level FlightAware Transoceanic
12:31AM 38.9445 156.0443 250° West 442 509 40,000  Level FlightAware Transoceanic
12:32AM 38.9028 155.9001 250° West 442 509 40,000  Level FlightAware Transoceanic
12:33AM 38.8610 155.7561 249° West 442 509 40,000  Level FlightAware Transoceanic
12:34AM 38.8190 155.6122 249° West 442 509 40,000  Level FlightAware Transoceanic
12:35AM 38.7768 155.4686 249° West 442 509 40,000  Level FlightAware Transoceanic
12:36AM 38.7345 155.3251 249° West 442 509 40,000  Level FlightAware Transoceanic
12:37AM 38.6920 155.1817 249° West 442 509 40,000  Level FlightAware Transoceanic
12:38AM 38.6493 155.0386 249° West 442 509 40,000  Level FlightAware Transoceanic
12:39AM 38.6064 154.8956 249° West 442 509 40,000  Level FlightAware Transoceanic
12:40AM 38.5634 154.7528 249° West 442 509 40,000  Level FlightAware Transoceanic
12:41AM 38.5202 154.6101 249° West 442 509 40,000  Level FlightAware Transoceanic
12:42AM 38.4768 154.4677 249° West 442 509 40,000  Level FlightAware Transoceanic
12:43AM 38.4332 154.3253 249° West 442 509 40,000  Level FlightAware Transoceanic
12:44AM 38.3895 154.1832 249° West 442 509 40,000  Level FlightAware Transoceanic
12:45AM 38.3456 154.0413 248° West 442 509 40,000  Level FlightAware Transoceanic
12:46AM 38.3015 153.8995 248° West 442 509 40,000  Level FlightAware Transoceanic
12:47AM 38.2573 153.7579 248° West 442 509 40,000  Level FlightAware Transoceanic
12:48AM 38.2129 153.6164 248° West 442 509 40,000  Level FlightAware Transoceanic
12:49AM 38.1683 153.4751 248° West 442 509 40,000  Level FlightAware Transoceanic
12:50AM 38.1235 153.3340 248° West 442 509 40,000  Level FlightAware Transoceanic
12:51AM 38.0786 153.1931 248° West 442 509 40,000  Level FlightAware Transoceanic
12:52AM 38.0335 153.0524 248° West 442 509 40,000  Level FlightAware Transoceanic
12:53AM 37.9883 152.9118 248° West 442 509 40,000  Level FlightAware Transoceanic
12:54AM 37.9428 152.7714 248° West 442 509 40,000  Level FlightAware Transoceanic
12:55AM 37.8972 152.6312 248° West 442 509 40,000  Level FlightAware Transoceanic
12:56AM 37.8515 152.4911 247° West 442 509 40,000  Level FlightAware Transoceanic
12:57AM 37.8056 152.3512 247° West 442 509 40,000  Level FlightAware Transoceanic
12:58AM 37.7595 152.2115 247° West 442 509 40,000  Level FlightAware Transoceanic
12:59AM 37.7132 152.0720 247° West 442 509 40,000  Level FlightAware Transoceanic
01:00AM 37.6668 151.9326 247° West 442 509 40,000  Level FlightAware Transoceanic
01:01AM 37.6202 151.7935 247° West 442 509 40,000  Level FlightAware Transoceanic
01:02AM 37.5735 151.6544 247° West 442 509 40,000  Level FlightAware Transoceanic
01:03AM 37.5266 151.5156 247° West 442 509 40,000  Level FlightAware Transoceanic
01:04AM 37.4795 151.3770 247° West 442 509 40,000  Level FlightAware Transoceanic
01:05AM 37.4323 151.2385 247° West 442 509 40,000  Level FlightAware Transoceanic
01:06AM 37.3849 151.1002 247° West 442 509 40,000  Level FlightAware Transoceanic
01:07AM 37.3373 150.9620 247° West 442 509 40,000  Level FlightAware Transoceanic
01:08AM 37.2896 150.8241 246° West 442 509 40,000  Level FlightAware Transoceanic
01:09AM 37.2417 150.6863 246° West 442 509 40,000  Level FlightAware Transoceanic
01:10AM 37.1937 150.5487 246° West 442 509 40,000  Level FlightAware Transoceanic
01:11AM 37.1455 150.4113 246° West 442 509 40,000  Level FlightAware Transoceanic
01:12AM 37.0972 150.2740 246° West 442 509 40,000  Level FlightAware Transoceanic
01:13AM 37.0487 150.1369 246° West 442 509 40,000  Level FlightAware Transoceanic
01:14AM 36.9967 149.9906 246° West  Level FlightAware Approximate
01:15AM 36.9986 149.9795 265° West  Level FlightAware Approximate
01:16AM 36.9873 149.8201 265° West  Level FlightAware Approximate
01:17AM 36.9759 149.6606 265° West  Level FlightAware Approximate
01:18AM 36.9642 149.5013 265° West  Level FlightAware Approximate
01:19AM 36.9524 149.3420 265° West  Level FlightAware Approximate
01:20AM 36.9403 149.1827 265° West  Level FlightAware Approximate
01:21AM 36.9280 149.0235 265° West  Level FlightAware Approximate
01:22AM 36.9155 148.8643 264° West  Level FlightAware Approximate
01:23AM 36.9028 148.7052 264° West  Level FlightAware Approximate
01:24AM 36.8899 148.5462 264° West  Level FlightAware Approximate
01:25AM 36.8670 148.3894 255° West  Level FlightAware Approximate
01:26AM 36.8342 148.2350 255° West  Level FlightAware Approximate
01:27AM 36.8012 148.0807 255° West  Level FlightAware Approximate
01:28AM 36.7680 147.9265 255° West  Level FlightAware Approximate
01:29AM 36.7346 147.7725 255° West  Level FlightAware Approximate
01:30AM 36.7010 147.6186 255° West  Level FlightAware Approximate
01:31AM 36.6673 147.4648 255° West  Level FlightAware Approximate
01:32AM 36.6333 147.3112 255° West  Level FlightAware Approximate
01:33AM 36.5991 147.1577 255° West  Level FlightAware Approximate
01:34AM 36.5647 147.0043 254° West  Level FlightAware Approximate
01:34AM 36.4250 146.8520 248° West 448 516 40,000  Level FlightAware
01:35AM 36.5301 146.8511 254° West  Level FlightAware Approximate
01:36AM 36.4955 146.6987 254° West  Level FlightAware Approximate
01:37AM 36.4607 146.5464 254° West  Level FlightAware Approximate
01:38AM 36.4257 146.3943 254° West  Level FlightAware Approximate
01:39AM 36.3873 146.2437 248° West  Level FlightAware Approximate
01:40AM 36.3400 146.0969 248° West  Level FlightAware Approximate
01:41AM 36.2925 145.9503 248° West  Level FlightAware Approximate
01:41AM 36.1840 145.6650 256° West 454 522 40,000  Level FlightAware
01:42AM 36.2449 145.8039 248° West  Level FlightAware Approximate
01:42AM 36.1620 145.5620 255° West 454 522 40,000  Level FlightAware
01:43AM 36.1450 145.4760 256° West 454 522 40,000  Level FlightAware
01:43AM 36.1290 145.3990 256° West 454 522 40,000  Level FlightAware
01:44AM 36.1140 145.3210 257° West 454 522 40,000  Level FlightAware
01:45AM 36.0970 145.1650 262° West 456 525 40,000  Level FlightAware
01:45AM 36.0830 145.0720 259° West 454 522 40,000  Level FlightAware
01:46AM 36.0700 144.9860 259° West 452 520 40,000  Level FlightAware
01:46AM 36.0560 144.8940 259° West 438 504 40,000  Level FlightAware
01:47AM 36.0430 144.8100 259° West 432 497 40,000  Level FlightAware
01:48AM 36.0310 144.7360 259° West 431 496 40,000  Level FlightAware
01:48AM 36.0140 144.6260 259° West 436 502 40,000  Level FlightAware
01:49AM 35.9960 144.5190 258° West 438 504 40,000  Level FlightAware
01:50AM 35.9760 144.3820 260° West 437 503 40,000  Level FlightAware
01:51AM 35.9640 144.3070 259° West 437 503 40,000  Level FlightAware
01:51AM 35.9520 144.2320 259° West 437 503 40,000  Level FlightAware
01:52AM 35.9400 144.1570 259° West 437 503 40,000  Level FlightAware
01:52AM 35.9280 144.0820 259° West 437 503 40,000 -4,080 Level FlightAware
01:53AM 35.9030 143.9280 259° West 446 513 35,300 -4,680 Descending FlightAware
01:54AM 35.8860 143.8290 258° West 449 517 34,300 -1,560 Descending FlightAware
01:54AM 35.8690 143.7450 256° West 453 521 33,400 -900 Descending FlightAware
01:55AM 35.8480 143.6490 255° West 454 522 33,200 -180 Descending FlightAware
01:56AM 35.8310 143.5730 255° West 454 522 33,200  Level FlightAware
01:56AM 35.8140 143.4920 256° West 454 522 33,200 -1,020 Level FlightAware
01:57AM 35.7920 143.3680 258° West 460 529 32,000 -1,080 Descending FlightAware
01:57AM 35.7730 143.2760 256° West 461 531 32,000 -120 Level FlightAware
01:58AM 35.7530 143.1770 256° West 457 526 31,900 -840 Descending FlightAware
01:59AM 35.7360 143.0900 256° West 457 526 31,000 -780 Descending FlightAware
01:59AM 35.7170 143.0070 254° West 457 526 31,000 -1,200 Level FlightAware
02:00AM 35.7010 142.9200 257° West 442 509 29,500 -1,260 Descending FlightAware
02:00AM 35.6860 142.8450 256° West 442 509 29,500  Level FlightAware
02:01AM 35.6700 142.7700 255° West 442 509 29,500 -3,240 Level FlightAware
02:02AM 35.6430 142.6460 255° West 562 647 25,300 -3,420 Descending FlightAware
02:02AM 35.6260 142.5560 257° West 382 440 24,800 -660 Descending FlightAware
02:03AM 35.6190 142.4810 263° West 372 428 24,500 -420 Descending FlightAware
02:04AM 35.6300 142.4140 281° West 366 421 24,300 -420 Descending FlightAware
02:04AM 35.6550 142.3690 304° West 365 420 24,100 -360 Descending FlightAware
02:05AM 35.6960 142.3360 327° Northwest 354 407 24,000 -180 Descending FlightAware
02:05AM 35.7210 142.3290 347° North 348 400 24,000  Level FlightAware
02:05AM 35.7810 142.3150 349° North 312 359 24,000  Level FlightAware
02:06AM 35.8230 142.3030 347° North 308 354 24,000  Level FlightAware
02:06AM 35.8340 142.2950 329° Northwest 300 345 24,000  Level FlightAware
02:06AM 35.8440 142.2820 314° West 294 338 24,000 -180 Level FlightAware
02:07AM 35.8580 142.2340 290° West 292 336 23,900 -420 Descending FlightAware
02:08AM 35.8750 142.1550 285° West 301 346 23,400 -360 Descending FlightAware
02:08AM 35.8860 142.1060 286° West 301 346 23,400  Level FlightAware
02:09AM 35.8980 142.0490 285° West 301 346 23,400  Level FlightAware
02:10AM 35.9090 142.0000 286° West 301 346 23,400  Level FlightAware
02:10AM 35.9220 141.9380 285° West 301 346 23,400  Level FlightAware
02:11AM 35.9330 141.8870 285° West 301 346 23,400 -2,040 Level FlightAware
02:11AM 35.7640 141.8320 195° South 286 329 21,500 -2,640 Descending FlightAware
02:12AM 35.7340 141.7790 235° Southwest 284 327 20,800 -1,080 Descending FlightAware
02:13AM 35.7070 141.7330 234° Southwest 288 331 20,200 -1,140 Descending FlightAware
02:13AM 35.6790 141.6850 234° Southwest 284 327 19,500 -1,140 Descending FlightAware
02:14AM 35.6530 141.6390 235° Southwest 279 321 18,900 -1,020 Descending FlightAware
02:14AM 35.6270 141.5940 235° Southwest 277 319 18,300 -1,020 Descending FlightAware
02:15AM 35.6000 141.5480 234° Southwest 276 318 17,700 -1,020 Descending FlightAware
02:15AM 35.5810 141.5090 239° Southwest 268 308 17,200 -1,020 Descending FlightAware
02:16AM 35.5780 141.4790 263° West 270 311 16,900 -1,080 Descending FlightAware
02:16AM 35.5810 141.4630 283° West 273 314 16,700 -1,080 Descending FlightAware
02:16AM 35.6040 141.4110 299° West 275 316 16,000 -1,020 Descending FlightAware
02:17AM 35.6210 141.3730 299° West 274 315 15,500 -1,020 Descending FlightAware
02:18AM 35.6460 141.3190 300° West 272 313 14,800 -1,080 Descending FlightAware
02:18AM 35.6710 141.2630 299° West 269 310 14,100 -1,020 Descending FlightAware
02:19AM 35.6950 141.2100 299° West 264 304 13,500 -1,020 Descending FlightAware
02:20AM 35.7150 141.1650 299° West 260 299 12,900 -1,080 Descending FlightAware
02:20AM 35.7360 141.1180 299° West 258 297 12,300 -1,080 Descending FlightAware
02:21AM 35.7580 141.0690 299° West 255 293 11,700 -960 Descending FlightAware
02:21AM 35.7760 141.0290 299° West 255 293 11,200 -1,080 Descending FlightAware
02:22AM 35.8010 140.9730 299° West 258 297 10,400 -1,140 Descending FlightAware
02:22AM 35.8160 140.9400 299° West 258 297 10,000 -960 Descending FlightAware
02:23AM 35.8250 140.9180 297° West 259 298 9,700 -1,080 Descending FlightAware
02:23AM 35.8300 140.8930 284° West 256 295 9,400 -960 Descending FlightAware
02:23AM 35.8220 140.8650 251° West 246 283 9,100 -1,080 Descending FlightAware
02:24AM 35.8110 140.8500 228° Southwest 243 280 8,800 -1,200 Descending FlightAware
02:24AM 35.8000 140.8430 207° Southwest 244 281 8,700 -600 Descending FlightAware
02:24AM 35.7810 140.8350 199° South 237 273 8,500 -600 Descending FlightAware
02:24AM 35.7720 140.8310 200° South 244 281 8,400 -600 Descending FlightAware
02:25AM 35.7480 140.8210 199° South 236 272 8,200 -780 Descending FlightAware
02:25AM 35.7280 140.8120 200° South 225 259 7,900 -1,080 Descending FlightAware
02:25AM 35.7080 140.8030 200° South 223 257 7,500 -1,020 Descending FlightAware
02:25AM 35.6970 140.7980 200° South 221 254 7,400 -840 Descending FlightAware
02:26AM 35.6770 140.7900 198° South 225 259 7,100 -960 Descending FlightAware
02:26AM 35.6580 140.7810 201° Southwest 222 255 6,800 -1,020 Descending FlightAware
02:26AM 35.6420 140.7750 197° South 220 253 6,500 -840 Descending FlightAware
02:27AM 35.6240 140.7670 200° South 209 241 6,300 -600 Descending FlightAware
02:27AM 35.6170 140.7640 199° South 207 238 6,100 -960 Descending FlightAware
02:27AM 35.5980 140.7560 199° South 203 234 5,800 -1,080 Descending FlightAware
02:28AM 35.5620 140.7400 200° South 201 231 5,300 -1,020 Descending FlightAware
02:28AM 35.5530 140.7360 200° South 199 229 5,100 -900 Descending FlightAware
02:28AM 35.5240 140.7240 199° South 191 220 4,700 -840 Descending FlightAware
02:29AM 35.5080 140.7170 200° South 191 220 4,400 -900 Descending FlightAware
02:29AM 35.4960 140.7100 205° Southwest 188 216 4,200 -420 Descending FlightAware
02:29AM 35.4850 140.6990 219° Southwest 194 223 4,200  Level FlightAware
02:29AM 35.4820 140.6930 238° Southwest 189 217 4,200  Level FlightAware
02:30AM 35.4650 140.6660 232° Southwest 189 217 4,200  Level FlightAware
02:30AM 35.4630 140.6540 258° West 181 208 4,200  Level FlightAware
02:30AM 35.4630 140.6510 270° West 175 201 4,200  Level FlightAware
02:31AM 35.4700 140.6270 290° West 176 203 4,200  Level FlightAware
02:31AM 35.4780 140.6100 300° West 176 203 4,200  Level FlightAware
02:31AM 35.4860 140.5920 299° West 176 203 4,200  Level FlightAware
02:32AM 35.4930 140.5780 302° West 177 204 4,200  Level FlightAware
02:32AM 35.4990 140.5680 306° West 176 203 4,200  Level FlightAware
02:32AM 35.5040 140.5630 321° Northwest 177 204 4,200  Level FlightAware
02:32AM 35.5170 140.5530 328° Northwest 181 208 4,200  Level FlightAware
02:33AM 35.5300 140.5440 331° Northwest 184 212 4,200  Level FlightAware
02:33AM 35.5430 140.5350 331° Northwest 184 212 4,200  Level FlightAware
02:33AM 35.5530 140.5280 330° Northwest 184 212 4,200 -180 Level FlightAware
02:33AM 35.5700 140.5150 328° Northwest 185 213 4,100 -720 Descending FlightAware
02:34AM 35.5860 140.5040 331° Northwest 187 215 3,700 -1,140 Descending FlightAware
02:34AM 35.5950 140.4970 328° Northwest 187 215 3,500 -1,020 Descending FlightAware
02:34AM 35.6130 140.4850 332° Northwest 179 206 3,100 -1,020 Descending FlightAware
02:35AM 35.6270 140.4750 330° Northwest 174 200 2,800 -840 Descending FlightAware
02:35AM 35.6380 140.4670 329° Northwest 173 199 2,600 -840 Descending FlightAware
02:35AM 35.6510 140.4570 328° Northwest 174 200 2,300 -960 Descending FlightAware
02:36AM 35.6660 140.4470 332° Northwest 173 199 2,000 -900 Descending FlightAware
02:36AM 35.6790 140.4370 328° Northwest 160 184 1,700 -840 Descending FlightAware
02:36AM 35.6890 140.4300 330° Northwest 153 176 1,500 -720 Descending FlightAware
02:37AM 35.7000 140.4220 329° Northwest 155 178 1,300 -720 Descending FlightAware
02:37AM 35.7140 140.4120 330° Northwest 154 177 1,000 -900 Descending FlightAware
02:37AM 35.7210 140.4070 330° Northwest 154 177 800 -900 Descending FlightAware
02:38AM 35.7360 140.3960 329° Northwest 150 173 500 -360 Descending FlightAware
02:38AM 35.7540 140.3830 330° Northwest 148 170 500  Level FlightAware